createdAt,value
2017-12-01T04:32:32.984Z,-0.10
2017-12-01T04:35:00.561Z,0.00
2017-12-01T04:37:28.909Z,0.00
2017-12-01T04:39:56.546Z,0.00
2017-12-01T04:42:24.130Z,0.00
2017-12-01T04:44:51.711Z,-0.10
2017-12-01T04:47:19.370Z,-0.10
2017-12-01T04:49:46.958Z,-0.10
2017-12-01T04:52:14.546Z,-0.20
2017-12-01T04:54:42.177Z,-0.20
2017-12-01T04:57:09.757Z,-0.10
2017-12-01T04:59:37.377Z,-0.10
2017-12-01T05:02:05.804Z,-0.10
2017-12-01T05:04:33.389Z,-0.10
2017-12-01T05:07:01.013Z,-0.10
2017-12-01T05:09:28.585Z,0.00
2017-12-01T05:11:56.169Z,-0.10
2017-12-01T05:14:23.793Z,-0.10
2017-12-01T05:16:51.373Z,-0.10
2017-12-01T05:19:18.953Z,-0.10
2017-12-01T05:21:46.585Z,-0.10
2017-12-01T05:24:14.165Z,-0.10
2017-12-01T05:26:41.746Z,-0.10
2017-12-01T05:29:10.143Z,-0.10
2017-12-01T05:31:37.727Z,-0.10
2017-12-01T05:34:05.309Z,-0.10
2017-12-01T05:36:32.922Z,-0.30
2017-12-01T05:39:00.514Z,-0.40
2017-12-01T05:41:28.152Z,-0.40
2017-12-01T05:43:55.739Z,-0.50
2017-12-01T05:46:23.321Z,-0.40
2017-12-01T05:48:51.097Z,-0.50
2017-12-01T05:51:19.450Z,-0.60
2017-12-01T05:53:47.034Z,-0.60
2017-12-01T05:56:15.439Z,-0.70
2017-12-01T05:58:43.017Z,-0.70
2017-12-01T06:01:10.598Z,-0.70
2017-12-01T06:03:38.217Z,-0.80
2017-12-01T06:06:05.801Z,-0.80
2017-12-01T06:08:33.380Z,-0.80
2017-12-01T06:11:01.006Z,-0.90
2017-12-01T06:13:28.680Z,-0.90
2017-12-01T06:15:56.260Z,-1.00
2017-12-01T06:18:23.873Z,-1.10
2017-12-01T06:20:51.461Z,-1.10
2017-12-01T06:23:19.077Z,-1.10
2017-12-01T06:25:46.661Z,-1.20
2017-12-01T06:28:14.250Z,-1.30
2017-12-01T06:30:41.889Z,-1.30
2017-12-01T06:33:09.472Z,-1.30
2017-12-01T06:35:37.822Z,-1.40
2017-12-01T06:38:05.450Z,-1.40
2017-12-01T06:40:33.039Z,-1.40
2017-12-01T06:43:00.666Z,-1.40
2017-12-01T06:45:28.330Z,-1.40
2017-12-01T06:47:55.913Z,-1.40
2017-12-01T06:50:23.494Z,-1.30
2017-12-01T06:52:51.138Z,-1.40
2017-12-01T06:55:18.723Z,-1.40
2017-12-01T06:57:46.315Z,-1.40
2017-12-01T07:00:14.721Z,-1.60
2017-12-01T07:02:42.305Z,-1.50
2017-12-01T07:05:09.894Z,-1.50
2017-12-01T07:07:37.523Z,-1.40
2017-12-01T07:10:05.570Z,-1.40
2017-12-01T07:12:33.155Z,-1.30
2017-12-01T07:15:00.757Z,-1.20
2017-12-01T07:17:29.106Z,-1.30
2017-12-01T07:19:56.733Z,-1.30
2017-12-01T07:22:24.323Z,-1.30
2017-12-01T07:24:51.909Z,-1.30
2017-12-01T07:27:20.313Z,-1.30
2017-12-01T07:29:47.897Z,-1.30
2017-12-01T07:32:15.484Z,-1.40
2017-12-01T07:34:43.088Z,-1.30
2017-12-01T07:37:10.679Z,-1.20
2017-12-01T07:39:38.269Z,-1.30
2017-12-01T07:42:05.893Z,-1.40
2017-12-01T07:44:48.356Z,-1.50
2017-12-01T07:47:16.766Z,-1.40
2017-12-01T07:49:44.354Z,-1.50
2017-12-01T07:52:11.934Z,-1.50
2017-12-01T07:54:40.326Z,-1.50
2017-12-01T07:57:11.409Z,-1.50
2017-12-01T07:59:38.993Z,-1.50
2017-12-01T08:02:06.646Z,-1.60
2017-12-01T08:04:34.230Z,-1.80
2017-12-01T08:07:02.586Z,-1.80
2017-12-01T08:09:30.246Z,-1.80
2017-12-01T08:11:57.798Z,-1.80
2017-12-01T08:14:25.418Z,-1.80
2017-12-01T08:17:04.874Z,-1.70
2017-12-01T08:19:32.458Z,-1.60
2017-12-01T08:22:11.997Z,-1.60
2017-12-01T08:24:51.511Z,-1.50
2017-12-01T08:27:19.138Z,-1.50
2017-12-01T08:29:46.716Z,-1.40
2017-12-01T08:32:14.301Z,-1.40
2017-12-01T08:34:42.112Z,-1.40
2017-12-01T08:37:10.466Z,-1.40
2017-12-01T08:39:38.829Z,-1.50
2017-12-01T08:42:06.462Z,-1.50
2017-12-01T08:44:34.050Z,-1.50
2017-12-01T08:47:01.639Z,-1.30
2017-12-01T08:49:30.010Z,-1.10
2017-12-01T08:51:58.361Z,-1.00
2017-12-01T08:54:25.942Z,-1.00
2017-12-01T08:56:54.330Z,-0.90
2017-12-01T08:59:22.677Z,-0.80
2017-12-01T09:01:50.257Z,-0.90
2017-12-01T09:04:18.650Z,-0.70
2017-12-01T09:06:46.997Z,-0.50
2017-12-01T09:09:16.085Z,-0.40
2017-12-01T09:11:45.222Z,-0.20
2017-12-01T09:14:12.810Z,-0.20
2017-12-01T09:16:40.472Z,-0.20
2017-12-01T09:19:08.185Z,-0.30
2017-12-01T09:21:36.535Z,-0.40
2017-12-01T09:24:04.118Z,-0.40
2017-12-01T09:26:32.493Z,-0.30
2017-12-01T09:29:00.846Z,-0.30
2017-12-01T09:31:28.433Z,-0.40
2017-12-01T09:33:56.828Z,-0.40
2017-12-01T09:36:24.414Z,-0.40
2017-12-01T09:38:52.014Z,-0.40
2017-12-01T09:41:20.405Z,-0.20
2017-12-01T09:43:48.749Z,-0.20
2017-12-01T09:46:16.336Z,-0.30
2017-12-01T09:48:44.720Z,-0.10
2017-12-01T09:51:13.071Z,0.10
2017-12-01T09:53:40.661Z,0.10
2017-12-01T09:56:09.050Z,0.70
2017-12-01T09:58:37.393Z,0.90
2017-12-01T10:01:04.970Z,0.90
2017-12-01T10:03:33.361Z,1.10
2017-12-01T10:06:00.937Z,1.10
2017-12-01T10:08:28.517Z,1.00
2017-12-01T10:10:56.169Z,1.00
2017-12-01T10:13:23.752Z,0.90
2017-12-01T10:15:52.841Z,0.80
2017-12-01T10:18:20.475Z,0.80
2017-12-01T10:20:48.255Z,0.80
2017-12-01T10:23:15.839Z,0.80
2017-12-01T10:25:43.450Z,0.90
2017-12-01T10:28:11.030Z,0.90
2017-12-01T10:30:38.609Z,1.10
2017-12-01T10:33:06.225Z,1.10
2017-12-01T10:35:33.823Z,1.20
2017-12-01T10:38:01.406Z,1.30
2017-12-01T10:40:29.773Z,1.50
2017-12-01T10:42:57.357Z,1.50
2017-12-01T10:45:25.753Z,1.30
2017-12-01T10:47:53.330Z,1.20
2017-12-01T10:50:20.917Z,1.30
2017-12-01T10:52:48.549Z,1.30
2017-12-01T10:55:16.129Z,1.20
2017-12-01T10:57:43.710Z,1.20
2017-12-01T11:00:11.312Z,1.20
2017-12-01T11:02:38.894Z,1.20
2017-12-01T11:05:06.473Z,1.20
2017-12-01T11:07:34.257Z,1.30
2017-12-01T11:10:02.597Z,1.40
2017-12-01T11:12:30.184Z,1.40
2017-12-01T11:14:57.821Z,1.50
2017-12-01T11:17:25.401Z,1.70
2017-12-01T11:19:52.981Z,1.80
2017-12-01T11:22:21.417Z,2.00
2017-12-01T11:24:49.002Z,2.00
2017-12-01T11:27:17.345Z,1.90
2017-12-01T11:29:44.988Z,1.90
2017-12-01T11:32:12.562Z,1.90
2017-12-01T11:34:40.150Z,2.10
2017-12-01T11:37:07.762Z,2.20
2017-12-01T11:39:35.341Z,2.30
2017-12-01T11:42:02.919Z,2.20
2017-12-01T11:44:30.521Z,2.20
2017-12-01T11:46:58.103Z,2.10
2017-12-01T11:49:25.717Z,2.20
2017-12-01T11:51:54.061Z,2.20
2017-12-01T11:54:21.641Z,2.20
2017-12-01T11:56:50.010Z,2.20
2017-12-01T11:59:17.583Z,2.20
2017-12-01T12:01:45.929Z,2.10
2017-12-01T12:04:13.558Z,2.10
2017-12-01T12:06:41.137Z,2.00
2017-12-01T12:09:08.787Z,1.90
2017-12-01T12:11:36.393Z,1.90
2017-12-01T12:14:04.737Z,1.80
2017-12-01T12:16:32.323Z,1.80
2017-12-01T12:18:59.929Z,1.90
2017-12-01T12:21:27.511Z,1.90
2017-12-01T12:23:55.093Z,1.90
2017-12-01T12:26:22.699Z,1.90
2017-12-01T12:28:50.281Z,1.90
2017-12-01T12:31:17.910Z,1.80
2017-12-01T12:33:45.485Z,1.80
2017-12-01T12:36:13.062Z,1.80
2017-12-01T12:38:40.699Z,1.70
2017-12-01T12:41:08.281Z,1.80
2017-12-01T12:43:35.865Z,1.90
2017-12-01T12:46:03.492Z,2.00
2017-12-01T12:48:31.073Z,1.90
2017-12-01T12:50:59.424Z,1.90
2017-12-01T12:53:27.053Z,1.90
2017-12-01T12:55:54.638Z,1.90
2017-12-01T12:58:22.217Z,1.90
2017-12-01T13:00:49.825Z,1.80
2017-12-01T13:03:17.413Z,1.80
2017-12-01T13:05:45.001Z,1.80
2017-12-01T13:08:12.625Z,1.80
2017-12-01T13:10:40.245Z,1.70
2017-12-01T13:13:07.825Z,1.80
2017-12-01T13:15:35.469Z,1.80
2017-12-01T13:18:03.822Z,1.80
2017-12-01T13:20:31.396Z,1.80
2017-12-01T13:22:59.026Z,1.70
2017-12-01T13:25:26.608Z,1.60
2017-12-01T13:27:54.229Z,1.60
2017-12-01T13:30:21.832Z,1.60
2017-12-01T13:32:49.410Z,1.50
2017-12-01T13:35:16.995Z,1.50
2017-12-01T13:37:44.614Z,1.40
2017-12-01T13:40:12.953Z,1.40
2017-12-01T13:42:40.574Z,1.40
2017-12-01T13:45:08.196Z,1.70
2017-12-01T13:47:35.780Z,1.50
2017-12-01T13:50:04.133Z,1.30
2017-12-01T13:52:31.772Z,1.30
2017-12-01T13:54:59.346Z,1.30
2017-12-01T13:57:26.929Z,1.20
2017-12-01T13:59:55.313Z,1.20
2017-12-01T14:02:23.665Z,1.20
2017-12-01T14:04:51.245Z,1.20
2017-12-01T14:07:19.606Z,1.10
2017-12-01T14:09:47.958Z,1.20
2017-12-01T14:12:15.562Z,1.20
2017-12-01T14:14:43.901Z,1.20
2017-12-01T14:17:12.985Z,1.20
2017-12-01T14:19:40.615Z,1.20
2017-12-01T14:22:08.194Z,1.10
2017-12-01T14:24:35.765Z,1.10
2017-12-01T14:27:03.558Z,1.10
2017-12-01T14:29:31.901Z,1.00
2017-12-01T14:31:59.478Z,1.00
2017-12-01T14:34:27.105Z,0.90
2017-12-01T14:36:54.685Z,1.00
2017-12-01T14:39:22.262Z,1.00
2017-12-01T14:41:49.881Z,1.20
2017-12-01T14:44:17.462Z,1.30
2017-12-01T14:46:45.042Z,1.00
2017-12-01T14:49:12.657Z,0.80
2017-12-01T14:51:40.245Z,0.70
2017-12-01T14:54:07.846Z,0.70
2017-12-01T14:56:35.473Z,0.70
2017-12-01T14:59:03.049Z,0.70
2017-12-01T15:01:31.402Z,0.60
2017-12-01T15:03:59.018Z,0.60
2017-12-01T15:06:26.597Z,0.40
2017-12-01T15:08:54.206Z,0.40
2017-12-01T15:11:22.549Z,0.30
2017-12-01T15:13:50.133Z,0.30
2017-12-01T15:16:18.509Z,0.30
2017-12-01T15:18:46.853Z,0.10
2017-12-01T15:21:15.301Z,0.10
2017-12-01T15:23:42.919Z,0.00
2017-12-01T15:26:11.269Z,-0.40
2017-12-01T15:28:38.850Z,-0.40
2017-12-01T15:31:06.457Z,-0.30
2017-12-01T15:33:34.037Z,-0.40
2017-12-01T15:36:01.653Z,-0.40
2017-12-01T15:38:29.997Z,-0.50
2017-12-01T15:40:57.586Z,-0.50
2017-12-01T15:43:25.973Z,-0.50
2017-12-01T15:45:53.553Z,-0.50
2017-12-01T15:48:21.133Z,-0.70
2017-12-01T15:50:48.813Z,-0.80
2017-12-01T15:53:17.155Z,-0.80
2017-12-01T15:55:44.737Z,-0.80
2017-12-01T15:58:13.873Z,-0.80
2017-12-01T16:00:41.466Z,-0.80
2017-12-01T16:03:09.049Z,-0.80
2017-12-01T16:05:36.689Z,-0.90
2017-12-01T16:08:04.265Z,-1.10
2017-12-01T16:10:31.845Z,-1.20
2017-12-01T16:12:59.461Z,-1.10
2017-12-01T16:15:27.040Z,-1.10
2017-12-01T16:17:54.636Z,-1.10
2017-12-01T16:20:22.253Z,-1.10
2017-12-01T16:22:49.841Z,-1.10
2017-12-01T16:25:17.481Z,-1.10
2017-12-01T16:27:45.064Z,-1.30
2017-12-01T16:30:13.413Z,-1.30
2017-12-01T16:32:42.485Z,-1.30
2017-12-01T16:35:08.663Z,-1.30
2017-12-01T16:37:37.013Z,-1.30
2017-12-01T16:40:04.638Z,-1.30
2017-12-01T16:42:32.221Z,-1.30
2017-12-01T16:44:59.953Z,-1.30
2017-12-01T16:47:27.579Z,-1.40
2017-12-01T16:49:55.928Z,-1.30
2017-12-01T16:52:23.514Z,-1.30
2017-12-01T16:54:51.897Z,-1.30
2017-12-01T16:57:20.245Z,-1.30
2017-12-01T16:59:48.600Z,-1.40
2017-12-01T17:02:16.234Z,-1.40
2017-12-01T17:04:43.823Z,-1.50
2017-12-01T17:07:11.413Z,-1.50
2017-12-01T17:09:39.089Z,-1.40
2017-12-01T17:12:07.526Z,-1.20
2017-12-01T17:14:35.118Z,-1.20
2017-12-01T17:17:04.497Z,-1.10
2017-12-01T17:19:33.589Z,-1.00
2017-12-01T17:22:01.178Z,-1.00
2017-12-01T17:24:29.548Z,-0.90
2017-12-01T17:26:57.906Z,-0.80
2017-12-01T17:29:26.267Z,-0.70
2017-12-01T17:31:53.898Z,-0.70
2017-12-01T17:34:21.495Z,-0.60
2017-12-01T17:36:50.011Z,-0.50
2017-12-01T17:39:18.432Z,-0.40
2017-12-01T17:41:46.017Z,-0.40
2017-12-01T17:44:14.585Z,-0.50
2017-12-01T17:46:42.175Z,-0.50
2017-12-01T17:49:10.541Z,-0.50
2017-12-01T17:51:38.273Z,-0.50
2017-12-01T17:54:05.864Z,-0.40
2017-12-01T17:56:33.450Z,-0.30
2017-12-01T17:59:01.842Z,-0.10
2017-12-01T18:01:29.425Z,-0.10
2017-12-01T18:03:57.020Z,-0.10
2017-12-01T18:06:24.642Z,-0.10
2017-12-01T18:08:52.229Z,-0.20
2017-12-01T18:11:19.810Z,-0.20
2017-12-01T18:13:48.178Z,0.20
2017-12-01T18:16:16.763Z,0.10
2017-12-01T18:18:44.373Z,0.10
2017-12-01T18:21:11.949Z,0.00
2017-12-01T18:23:39.529Z,-0.40
2017-12-01T18:26:07.133Z,-0.30
2017-12-01T18:28:34.717Z,-0.30
2017-12-01T18:31:02.359Z,-0.40
2017-12-01T18:33:29.950Z,-0.30
2017-12-01T18:35:57.533Z,-0.30
2017-12-01T18:38:25.165Z,-0.10
2017-12-01T18:40:52.752Z,0.00
2017-12-01T18:43:20.338Z,0.10
2017-12-01T18:45:48.030Z,0.10
2017-12-01T18:48:15.612Z,0.10
2017-12-01T18:50:43.198Z,0.20
2017-12-01T18:53:11.566Z,0.40
2017-12-01T18:55:39.145Z,0.40
2017-12-01T18:58:07.489Z,0.30
2017-12-01T19:00:35.133Z,0.30
2017-12-01T19:03:02.715Z,0.20
2017-12-01T19:05:30.297Z,0.20
2017-12-01T19:07:58.748Z,0.30
2017-12-01T19:10:26.297Z,0.30
2017-12-01T19:12:53.877Z,0.30
2017-12-01T19:15:21.605Z,0.30
2017-12-01T19:17:49.184Z,0.40
2017-12-01T19:20:16.769Z,0.40
2017-12-01T19:22:45.138Z,-0.10
2017-12-01T19:25:13.485Z,0.10
2017-12-01T19:27:41.062Z,0.10
2017-12-01T19:30:08.701Z,0.10
2017-12-01T19:32:36.285Z,0.30
2017-12-01T19:35:03.861Z,0.30
2017-12-01T19:37:32.257Z,0.00
2017-12-01T19:39:59.846Z,0.00
2017-12-01T19:42:27.437Z,-0.10
2017-12-01T19:44:55.830Z,-0.10
2017-12-01T19:47:24.182Z,-0.10
2017-12-01T19:49:51.773Z,-0.10
2017-12-01T19:52:20.137Z,0.00
2017-12-01T19:54:48.481Z,0.20
2017-12-01T19:57:16.106Z,0.10
2017-12-01T19:59:43.680Z,0.30
2017-12-01T20:02:11.260Z,0.40
2017-12-01T20:04:38.885Z,0.40
2017-12-01T20:07:06.467Z,0.50
2017-12-01T20:09:34.062Z,0.40
2017-12-01T20:12:01.705Z,0.50
2017-12-01T20:14:29.337Z,0.40
2017-12-01T20:16:57.133Z,0.20
2017-12-01T20:19:25.525Z,0.40
2017-12-01T20:21:53.106Z,0.30
2017-12-01T20:24:20.694Z,0.30
2017-12-01T20:26:48.299Z,0.30
2017-12-01T20:29:15.877Z,0.20
2017-12-01T20:31:44.286Z,0.30
2017-12-01T20:34:11.868Z,0.20
2017-12-01T20:36:39.459Z,0.40
2017-12-01T20:39:07.843Z,0.40
2017-12-01T20:41:36.189Z,0.20
2017-12-01T20:44:05.278Z,0.10
2017-12-01T20:46:32.897Z,0.10
2017-12-01T20:49:00.482Z,0.10
2017-12-01T20:51:28.061Z,0.20
2017-12-01T20:53:56.449Z,0.40
2017-12-01T20:56:24.033Z,0.40
2017-12-01T20:58:52.377Z,0.10
2017-12-01T21:01:20.773Z,0.00
2017-12-01T21:03:49.315Z,0.00
2017-12-01T21:06:16.897Z,0.00
2017-12-01T21:08:44.506Z,0.00
2017-12-01T21:11:12.078Z,0.00
2017-12-01T21:13:39.665Z,0.00
2017-12-01T21:16:07.270Z,0.20
2017-12-01T21:18:34.849Z,0.40
2017-12-01T21:21:02.462Z,0.40
2017-12-01T21:23:30.809Z,0.40
2017-12-01T21:25:58.389Z,0.40
2017-12-01T21:28:28.233Z,0.20
2017-12-01T21:30:55.810Z,0.20
2017-12-01T21:33:23.390Z,0.30
2017-12-01T21:35:50.998Z,0.30
2017-12-01T21:38:19.336Z,0.30
2017-12-01T21:40:46.953Z,0.30
2017-12-01T21:43:14.642Z,0.20
2017-12-01T21:45:42.225Z,0.10
2017-12-01T21:48:11.367Z,0.00
2017-12-01T21:50:38.957Z,0.10
2017-12-01T21:53:06.533Z,0.00
2017-12-01T21:55:34.151Z,0.00
2017-12-01T21:58:01.725Z,0.00
2017-12-01T22:00:29.310Z,0.00
2017-12-01T22:02:56.935Z,0.00
2017-12-01T22:05:24.517Z,0.00
2017-12-01T22:07:52.118Z,0.00
2017-12-01T22:10:20.546Z,0.00
2017-12-01T22:12:48.121Z,-0.10
2017-12-01T22:15:15.770Z,-0.10
2017-12-01T22:17:43.401Z,-0.10
2017-12-01T22:20:10.991Z,-0.10
2017-12-01T22:22:38.577Z,-0.10
2017-12-01T22:25:06.182Z,-0.10
2017-12-01T22:27:33.760Z,-0.10
2017-12-01T22:30:01.422Z,-0.20
2017-12-01T22:32:29.005Z,-0.20
2017-12-01T22:34:56.585Z,-0.20
2017-12-01T22:37:24.974Z,-0.20
2017-12-01T22:39:53.326Z,-0.20
2017-12-01T22:42:20.918Z,-0.20
2017-12-01T22:44:48.522Z,-0.20
2017-12-01T22:47:16.106Z,-0.10
2017-12-01T22:49:43.735Z,0.00
2017-12-01T22:52:11.321Z,-0.10
2017-12-01T22:54:39.669Z,-0.10
2017-12-01T22:57:07.297Z,-0.10
2017-12-01T22:59:34.876Z,0.00
2017-12-01T23:02:02.449Z,0.10
2017-12-01T23:04:30.053Z,0.30
2017-12-01T23:06:58.394Z,0.40
2017-12-01T23:09:26.135Z,0.40
2017-12-01T23:11:53.721Z,0.40
2017-12-01T23:14:21.306Z,0.60
2017-12-01T23:16:49.690Z,1.00
2017-12-01T23:19:18.034Z,0.90
2017-12-01T23:21:47.122Z,0.80
2017-12-01T23:24:14.717Z,0.80
2017-12-01T23:26:43.058Z,0.90
2017-12-01T23:29:10.642Z,0.90
